createdAt,value
2022-11-03T00:00:23.249Z,33.90
2022-11-03T00:02:57.257Z,39.58
2022-11-03T00:05:48.539Z,35.90
2022-11-03T00:08:22.537Z,32.65
2022-11-03T00:11:04.261Z,35.70
2022-11-03T00:13:39.753Z,36.08
2022-11-03T00:16:14.529Z,40.67
2022-11-03T00:18:48.495Z,32.30
2022-11-03T00:21:22.805Z,26.33
2022-11-03T00:23:56.867Z,34.90
2022-11-03T00:26:34.772Z,27.20
2022-11-03T00:29:10.686Z,37.00
2022-11-03T00:31:45.977Z,43.60
2022-11-03T00:34:19.814Z,36.03
2022-11-03T00:36:53.674Z,36.20
2022-11-03T00:39:27.693Z,29.88
2022-11-03T00:44:36.444Z,26.10
2022-11-03T00:49:43.855Z,39.27
2022-11-03T00:52:17.678Z,32.38
2022-11-03T00:57:30.688Z,27.80
2022-11-03T01:00:04.662Z,33.75
2022-11-03T01:02:38.516Z,31.38
2022-11-03T01:05:29.653Z,46.45
2022-11-03T01:08:05.219Z,46.50
2022-11-03T01:11:00.593Z,40.90
2022-11-03T01:13:35.896Z,32.20
2022-11-03T01:16:09.831Z,23.63
2022-11-03T01:18:43.801Z,45.97
2022-11-03T01:21:18.197Z,41.92
2022-11-03T01:23:52.182Z,42.33
2022-11-03T01:26:26.065Z,42.97
2022-11-03T01:29:02.957Z,29.13
2022-11-03T01:31:36.910Z,31.85
2022-11-03T01:34:15.805Z,33.13
2022-11-03T01:36:50.180Z,43.53
2022-11-03T01:39:24.188Z,40.55
2022-11-03T01:41:58.402Z,38.20
2022-11-03T01:44:36.269Z,37.72
2022-11-03T01:47:23.120Z,42.90
2022-11-03T01:50:02.860Z,34.80
2022-11-03T01:52:41.528Z,38.72
2022-11-03T01:55:20.100Z,41.45
2022-11-03T01:58:00.955Z,47.38
2022-11-03T02:00:37.168Z,43.58
2022-11-03T02:03:11.658Z,46.03
2022-11-03T02:05:47.032Z,37.60
2022-11-03T02:08:23.675Z,39.90
2022-11-03T02:10:58.697Z,43.85
2022-11-03T02:13:32.807Z,46.08
2022-11-03T02:16:08.806Z,39.40
2022-11-03T02:18:44.630Z,37.67
2022-11-03T02:21:28.298Z,45.28
2022-11-03T02:24:12.144Z,35.88
2022-11-03T02:26:50.202Z,40.55
2022-11-03T02:29:24.513Z,37.35
2022-11-03T02:32:05.701Z,31.75
2022-11-03T02:34:44.135Z,42.22
2022-11-03T02:37:22.100Z,40.30
2022-11-03T02:40:01.492Z,43.30
2022-11-03T02:42:38.866Z,49.05
2022-11-03T02:45:17.563Z,40.13
2022-11-03T02:47:55.861Z,36.38
2022-11-03T02:50:31.755Z,47.42
2022-11-03T02:53:05.952Z,50.72
2022-11-03T02:55:41.683Z,36.30
2022-11-03T02:58:22.811Z,51.20
2022-11-03T03:01:00.601Z,36.05
2022-11-03T03:03:39.005Z,40.28
2022-11-03T03:06:19.362Z,38.60
2022-11-03T03:08:57.868Z,34.92
2022-11-03T03:11:38.927Z,39.47
2022-11-03T03:14:17.588Z,53.33
2022-11-03T03:17:00.130Z,47.90
2022-11-03T03:19:48.425Z,31.90
2022-11-03T03:22:26.288Z,43.25
2022-11-03T03:25:04.536Z,29.70
2022-11-03T03:27:43.627Z,44.78
2022-11-03T03:30:20.116Z,33.70
2022-11-03T03:32:55.755Z,41.33
2022-11-03T03:35:32.029Z,35.20
2022-11-03T03:38:10.171Z,39.95
2022-11-03T03:40:46.776Z,31.33
2022-11-03T03:43:23.572Z,42.70
2022-11-03T03:46:05.445Z,47.53
2022-11-03T03:48:39.487Z,29.63
2022-11-03T03:51:15.277Z,44.17
2022-11-03T03:53:52.219Z,41.17
2022-11-03T03:56:31.021Z,37.22
2022-11-03T03:59:04.904Z,39.70
2022-11-03T04:01:40.399Z,54.50
2022-11-03T04:04:14.385Z,35.75
2022-11-03T04:06:48.612Z,42.58
2022-11-03T04:09:22.504Z,35.60
2022-11-03T04:12:13.622Z,42.40
2022-11-03T04:15:05.211Z,35.55
2022-11-03T04:18:00.124Z,29.45
2022-11-03T04:20:51.805Z,42.55
2022-11-03T04:23:25.740Z,35.17
2022-11-03T04:26:00.636Z,46.42
2022-11-03T04:28:34.682Z,44.63
2022-11-03T04:31:11.454Z,45.20
2022-11-03T04:33:47.503Z,40.97
2022-11-03T04:36:23.235Z,40.95
2022-11-03T04:38:57.895Z,43.35
2022-11-03T04:41:34.863Z,36.40
2022-11-03T04:44:15.783Z,43.15
2022-11-03T04:46:49.927Z,47.33
2022-11-03T04:49:25.509Z,47.63
2022-11-03T04:51:59.358Z,42.72
2022-11-03T04:57:12.554Z,37.15
2022-11-03T04:59:49.202Z,44.38
2022-11-03T05:02:23.200Z,48.42
2022-11-03T05:04:58.485Z,31.70
2022-11-03T05:07:35.944Z,26.42
2022-11-03T05:10:14.437Z,33.22
2022-11-03T05:12:52.969Z,40.40
2022-11-03T05:15:33.070Z,40.83
2022-11-03T05:18:17.530Z,28.98
2022-11-03T05:20:57.501Z,41.40
2022-11-03T05:23:36.944Z,39.80
2022-11-03T05:26:16.083Z,42.63
2022-11-03T05:28:53.862Z,28.95
2022-11-03T05:31:29.962Z,36.22
2022-11-03T05:34:13.490Z,37.53
2022-11-03T05:36:48.800Z,36.33
2022-11-03T05:39:31.384Z,51.08
2022-11-03T05:42:22.098Z,42.13
2022-11-03T05:44:56.678Z,47.83
2022-11-03T05:47:35.130Z,44.80
2022-11-03T05:50:18.244Z,49.90
2022-11-03T05:52:56.009Z,39.78
2022-11-03T05:55:32.794Z,42.08
2022-11-03T05:58:16.288Z,44.53
2022-11-03T06:00:50.242Z,43.97
2022-11-03T06:03:26.448Z,47.95
2022-11-03T06:06:02.921Z,43.40
2022-11-03T06:08:41.565Z,39.58
2022-11-03T06:11:28.049Z,33.60
2022-11-03T06:14:01.987Z,37.93
2022-11-03T06:16:41.727Z,34.28
2022-11-03T06:19:26.850Z,39.13
2022-11-03T06:22:07.281Z,47.30
2022-11-03T06:24:43.784Z,29.02
2022-11-03T06:27:20.057Z,34.05
2022-11-03T06:29:58.718Z,54.13
2022-11-03T06:32:33.999Z,44.50
2022-11-03T06:35:13.577Z,40.33
2022-11-03T06:37:47.675Z,52.50
2022-11-03T06:40:40.436Z,40.13
2022-11-03T06:43:22.806Z,54.45
2022-11-03T06:45:58.909Z,47.42
2022-11-03T06:48:35.758Z,41.25
2022-11-03T06:51:17.684Z,45.88
2022-11-03T06:53:52.584Z,52.28
2022-11-03T06:56:32.808Z,63.72
2022-11-03T06:59:14.382Z,57.83
2022-11-03T07:01:50.225Z,48.42
2022-11-03T07:04:28.758Z,58.10
2022-11-03T07:07:04.514Z,44.53
2022-11-03T07:09:39.299Z,51.92
2022-11-03T07:12:19.804Z,52.05
2022-11-03T07:14:53.683Z,50.40
2022-11-03T07:17:28.598Z,56.88
2022-11-03T07:20:02.512Z,54.58
2022-11-03T07:22:36.461Z,54.97
2022-11-03T07:25:16.931Z,49.38
2022-11-03T07:27:54.110Z,56.63
2022-11-03T07:30:31.744Z,47.20
2022-11-03T07:33:15.761Z,68.35
2022-11-03T07:38:44.803Z,52.10
2022-11-03T07:41:22.493Z,45.50
2022-11-03T07:43:59.821Z,45.25
2022-11-03T07:46:33.821Z,21.58
2022-11-03T07:49:12.696Z,22.33
2022-11-03T07:51:47.063Z,16.80
2022-11-03T07:54:23.677Z,22.38
2022-11-03T07:56:59.961Z,26.85
2022-11-03T07:59:38.283Z,25.48
2022-11-03T08:02:30.507Z,24.52
2022-11-03T08:05:05.439Z,22.33
2022-11-03T08:07:39.329Z,22.70
2022-11-03T08:12:47.796Z,16.00
2022-11-03T08:15:23.530Z,21.73
2022-11-03T08:17:57.432Z,18.95
2022-11-03T08:20:31.313Z,16.73
2022-11-03T08:23:24.693Z,14.10
2022-11-03T08:25:59.207Z,16.20
2022-11-03T08:28:34.055Z,17.98
2022-11-03T08:31:12.644Z,18.13
2022-11-03T08:33:47.168Z,14.00
2022-11-03T08:36:21.353Z,14.10
2022-11-03T08:38:55.524Z,15.30
2022-11-03T08:41:29.450Z,17.75
2022-11-03T08:44:03.369Z,14.15
2022-11-03T08:46:38.728Z,11.57
2022-11-03T08:49:12.551Z,10.25
2022-11-03T08:54:20.202Z,14.23
2022-11-03T08:56:54.728Z,11.60
2022-11-03T08:59:28.573Z,13.93
2022-11-03T09:04:37.601Z,17.25
2022-11-03T09:07:11.701Z,15.23
2022-11-03T09:12:39.953Z,12.90
2022-11-03T09:15:14.343Z,8.65
2022-11-03T09:17:49.671Z,11.18
2022-11-03T09:20:23.566Z,17.73
2022-11-03T09:22:57.468Z,17.30
2022-11-03T09:25:31.323Z,17.73
2022-11-03T09:28:05.607Z,19.85
2022-11-03T09:30:41.026Z,20.40
2022-11-03T09:33:16.322Z,13.77
2022-11-03T09:35:50.195Z,13.57
2022-11-03T09:38:24.059Z,14.55
2022-11-03T09:40:57.951Z,23.10
2022-11-03T09:43:33.108Z,13.45
2022-11-03T09:46:07.204Z,12.30
2022-11-03T09:48:42.592Z,16.20
2022-11-03T09:51:21.138Z,15.00
2022-11-03T09:53:56.672Z,16.27
2022-11-03T09:56:30.618Z,14.43
2022-11-03T09:59:14.828Z,15.57
2022-11-03T10:01:51.153Z,17.98
2022-11-03T10:04:28.706Z,16.70
2022-11-03T10:07:02.762Z,12.77
2022-11-03T10:09:36.726Z,13.05
2022-11-03T10:12:11.347Z,11.27
2022-11-03T10:14:46.754Z,10.38
2022-11-03T10:17:22.495Z,17.65
2022-11-03T10:20:00.012Z,9.18
2022-11-03T10:22:37.077Z,10.75
2022-11-03T10:25:47.341Z,11.73
2022-11-03T10:28:22.892Z,5.80
2022-11-03T10:31:22.381Z,11.93
2022-11-03T10:33:57.212Z,11.02
2022-11-03T10:36:34.229Z,9.57
2022-11-03T10:39:30.853Z,10.88
2022-11-03T10:42:04.947Z,7.53
2022-11-03T10:44:38.838Z,8.43
2022-11-03T10:47:25.464Z,10.07
2022-11-03T10:49:59.556Z,6.53
2022-11-03T10:55:14.252Z,10.70
2022-11-03T10:57:52.899Z,8.32
2022-11-03T11:00:27.475Z,11.07
2022-11-03T11:03:02.268Z,7.28
2022-11-03T11:05:36.252Z,6.88
2022-11-03T11:08:11.912Z,8.48
2022-11-03T11:10:47.011Z,8.27
2022-11-03T11:13:29.590Z,12.55
2022-11-03T11:16:03.971Z,6.13
2022-11-03T11:19:11.713Z,8.02
2022-11-03T11:22:04.040Z,10.10
2022-11-03T11:25:01.872Z,6.20
2022-11-03T11:28:20.316Z,13.63
2022-11-03T11:31:03.182Z,13.60
2022-11-03T11:33:37.038Z,7.85
2022-11-03T11:36:28.528Z,12.70
2022-11-03T11:39:04.122Z,6.40
2022-11-03T11:42:14.350Z,21.30
2022-11-03T11:44:59.179Z,13.90
2022-11-03T11:47:49.176Z,19.23
2022-11-03T11:50:31.873Z,26.27
2022-11-03T11:53:15.221Z,14.32
2022-11-03T11:55:52.766Z,14.05
2022-11-03T11:58:35.607Z,18.67
2022-11-03T12:01:23.724Z,23.10
2022-11-03T12:03:59.692Z,20.95
2022-11-03T12:06:34.882Z,13.35
2022-11-03T12:09:16.876Z,19.25
2022-11-03T12:11:55.370Z,17.13
2022-11-03T12:14:37.093Z,13.50
2022-11-03T12:17:33.486Z,16.90
2022-11-03T12:20:35.878Z,12.20
2022-11-03T12:23:09.864Z,16.15
2022-11-03T12:25:44.041Z,6.75
2022-11-03T12:28:32.897Z,14.07
2022-11-03T12:31:08.309Z,19.23
2022-11-03T12:33:42.299Z,18.85
2022-11-03T12:36:16.266Z,22.67
2022-11-03T12:38:50.135Z,16.25
2022-11-03T12:41:24.885Z,11.57
2022-11-03T12:43:58.922Z,16.73
2022-11-03T12:46:34.584Z,18.92
2022-11-03T12:49:08.641Z,19.10
2022-11-03T12:51:42.609Z,12.02
2022-11-03T12:54:16.692Z,16.30
2022-11-03T12:56:50.616Z,11.60
2022-11-03T12:59:24.603Z,10.88
2022-11-03T13:02:00.361Z,15.32
2022-11-03T13:04:34.885Z,14.02
2022-11-03T13:07:08.997Z,13.93
2022-11-03T13:09:43.769Z,10.90
2022-11-03T13:12:32.930Z,11.02
2022-11-03T13:15:10.256Z,6.30
2022-11-03T13:18:07.647Z,11.30
2022-11-03T13:20:40.172Z,12.80
2022-11-03T13:23:17.412Z,5.65
2022-11-03T13:25:54.425Z,11.10
2022-11-03T13:28:28.440Z,10.23
2022-11-03T13:31:02.597Z,9.93
2022-11-03T13:33:38.110Z,11.27
2022-11-03T13:36:12.398Z,9.00
2022-11-03T13:38:46.815Z,5.75
2022-11-03T13:41:20.868Z,8.32
2022-11-03T13:43:54.980Z,7.90
2022-11-03T13:46:28.891Z,15.88
2022-11-03T13:51:58.382Z,9.73
2022-11-03T14:00:22.669Z,7.57
2022-11-03T14:05:51.912Z,6.03
2022-11-03T14:08:25.780Z,10.07
2022-11-03T14:10:59.705Z,8.38
2022-11-03T14:16:06.400Z,5.28
2022-11-03T14:18:40.419Z,6.38
2022-11-03T14:21:15.658Z,6.53
2022-11-03T14:23:49.549Z,9.55
2022-11-03T14:26:41.299Z,5.47
2022-11-03T14:29:16.370Z,7.32
2022-11-03T14:31:50.224Z,4.47
2022-11-03T14:34:24.336Z,7.30
2022-11-03T14:36:59.854Z,6.90
2022-11-03T14:39:33.837Z,5.53
2022-11-03T14:42:11.826Z,5.65
2022-11-03T14:44:46.914Z,6.25
2022-11-03T14:47:22.055Z,9.05
2022-11-03T14:49:56.111Z,6.22
2022-11-03T14:52:31.770Z,13.30
2022-11-03T14:55:06.673Z,16.67
2022-11-03T14:57:40.802Z,7.18
2022-11-03T15:00:15.571Z,9.98
2022-11-03T15:02:49.972Z,12.57
2022-11-03T15:05:49.645Z,12.27
2022-11-03T15:08:25.994Z,17.50
2022-11-03T15:10:59.909Z,28.00
2022-11-03T15:16:13.417Z,18.58
2022-11-03T15:18:47.302Z,17.17
2022-11-03T15:26:51.035Z,17.05
2022-11-03T15:29:25.252Z,21.77
2022-11-03T15:31:59.265Z,19.48
2022-11-03T15:34:33.179Z,17.38
2022-11-03T15:37:07.158Z,16.83
2022-11-03T15:39:42.958Z,16.40
2022-11-03T15:42:16.845Z,20.83
2022-11-03T15:44:50.889Z,14.38
2022-11-03T15:47:24.929Z,18.27
2022-11-03T15:49:58.872Z,17.58
2022-11-03T15:52:33.056Z,19.13
2022-11-03T15:55:10.400Z,19.50
2022-11-03T15:57:44.444Z,19.35
2022-11-03T16:00:20.196Z,14.40
2022-11-03T16:02:54.315Z,17.95
2022-11-03T16:05:28.416Z,15.50
2022-11-03T16:08:02.366Z,16.70
2022-11-03T16:10:37.681Z,15.93
2022-11-03T16:13:11.528Z,19.13
2022-11-03T16:18:19.089Z,32.67
2022-11-03T16:20:52.958Z,19.23
2022-11-03T16:26:04.614Z,16.55
2022-11-03T16:28:38.652Z,20.52
2022-11-03T16:31:12.709Z,24.80
2022-11-03T16:33:46.833Z,23.58
2022-11-03T16:36:21.042Z,21.48
2022-11-03T16:38:54.920Z,18.50
2022-11-03T16:44:04.199Z,25.73
2022-11-03T16:46:38.129Z,29.52
2022-11-03T16:49:11.975Z,20.50
2022-11-03T16:54:19.764Z,16.88
2022-11-03T16:56:55.242Z,23.85
2022-11-03T16:59:29.299Z,20.45
2022-11-03T17:02:03.254Z,21.83
2022-11-03T17:04:37.233Z,19.80
2022-11-03T17:09:44.762Z,17.45
2022-11-03T17:14:56.617Z,19.95
2022-11-03T17:17:30.978Z,21.83
2022-11-03T17:20:05.784Z,18.73
2022-11-03T17:22:39.979Z,18.65
2022-11-03T17:25:14.151Z,15.68
2022-11-03T17:27:51.779Z,19.55
2022-11-03T17:30:27.471Z,23.25
2022-11-03T17:33:06.256Z,14.27
2022-11-03T17:35:42.110Z,16.58
2022-11-03T17:38:18.389Z,11.23
2022-11-03T17:40:52.727Z,12.88
2022-11-03T17:43:30.223Z,15.27
2022-11-03T17:46:04.055Z,16.15
2022-11-03T17:48:39.320Z,15.55
2022-11-03T17:51:13.845Z,13.50
2022-11-03T17:53:47.815Z,16.23
2022-11-03T17:56:31.058Z,12.68
2022-11-03T17:59:06.712Z,12.80
2022-11-03T18:01:40.823Z,14.57
2022-11-03T18:04:15.946Z,10.40
2022-11-03T18:06:49.896Z,12.38
2022-11-03T18:09:23.844Z,11.48
2022-11-03T18:12:15.321Z,12.25
2022-11-03T18:14:50.750Z,15.23
2022-11-03T18:17:24.979Z,16.17
2022-11-03T18:19:58.927Z,17.67
2022-11-03T18:22:32.874Z,16.02
2022-11-03T18:25:12.775Z,11.95
2022-11-03T18:27:47.447Z,16.30
2022-11-03T18:30:22.809Z,10.02
2022-11-03T18:32:56.762Z,15.85
2022-11-03T18:35:33.257Z,11.10
2022-11-03T18:38:10.631Z,16.17
2022-11-03T18:40:45.610Z,13.52
2022-11-03T18:43:21.849Z,12.65
2022-11-03T18:45:57.662Z,10.15
2022-11-03T18:48:32.059Z,17.10
2022-11-03T18:51:06.117Z,12.07
2022-11-03T18:53:40.110Z,12.65
2022-11-03T18:56:14.953Z,16.92
2022-11-03T18:58:49.831Z,14.52
2022-11-03T19:01:27.556Z,16.48
2022-11-03T19:04:01.948Z,16.25
2022-11-03T19:06:35.889Z,25.55
2022-11-03T19:09:13.486Z,14.45
2022-11-03T19:11:48.432Z,17.42
2022-11-03T19:14:25.102Z,31.10
2022-11-03T19:17:21.802Z,13.27
2022-11-03T19:19:55.444Z,19.73
2022-11-03T19:22:29.945Z,17.75
2022-11-03T19:25:04.204Z,15.88
2022-11-03T19:27:42.666Z,13.52
2022-11-03T19:30:21.777Z,17.50
2022-11-03T19:32:58.172Z,15.27
2022-11-03T19:35:35.041Z,13.07
2022-11-03T19:38:14.481Z,19.50
2022-11-03T19:41:06.314Z,12.82
2022-11-03T19:43:40.215Z,13.88
2022-11-03T19:46:20.823Z,13.55
2022-11-03T19:48:57.802Z,17.08
2022-11-03T19:51:31.712Z,9.90
2022-11-03T19:54:06.417Z,12.43
2022-11-03T19:56:40.366Z,12.25
2022-11-03T19:59:16.119Z,12.25
2022-11-03T20:01:50.305Z,14.23
2022-11-03T20:04:26.396Z,22.25
2022-11-03T20:07:00.815Z,9.07
2022-11-03T20:09:35.192Z,13.23
2022-11-03T20:12:11.842Z,13.38
2022-11-03T20:14:46.086Z,10.65
2022-11-03T20:17:23.098Z,13.63
2022-11-03T20:19:58.442Z,12.40
2022-11-03T20:22:32.438Z,9.95
2022-11-03T20:25:10.924Z,10.57
2022-11-03T20:27:45.059Z,11.95
2022-11-03T20:30:21.360Z,12.40
2022-11-03T20:32:55.691Z,16.00
2022-11-03T20:35:32.664Z,12.30
2022-11-03T20:38:07.158Z,11.30
2022-11-03T20:40:41.938Z,14.90
2022-11-03T20:43:23.959Z,13.68
2022-11-03T20:45:58.385Z,10.73
2022-11-03T20:48:32.287Z,10.52
2022-11-03T20:51:08.689Z,13.45
2022-11-03T20:53:42.717Z,12.00
2022-11-03T20:56:19.774Z,11.90
2022-11-03T20:58:54.589Z,11.57
2022-11-03T21:01:33.319Z,13.63
2022-11-03T21:04:09.747Z,11.30
2022-11-03T21:06:45.271Z,13.45
2022-11-03T21:09:20.558Z,11.90
2022-11-03T21:11:55.257Z,11.27
2022-11-03T21:14:31.075Z,12.02
2022-11-03T21:17:22.794Z,14.55
2022-11-03T21:20:08.191Z,10.60
2022-11-03T21:22:53.898Z,10.77
2022-11-03T21:25:28.229Z,11.73
2022-11-03T21:28:02.185Z,7.75
2022-11-03T21:30:36.085Z,11.75
2022-11-03T21:33:10.186Z,10.73
2022-11-03T21:35:45.874Z,10.85
2022-11-03T21:38:22.062Z,11.27
2022-11-03T21:41:16.079Z,10.75
2022-11-03T21:44:07.372Z,9.43
2022-11-03T21:46:42.036Z,9.18
2022-11-03T21:49:33.727Z,11.15
2022-11-03T21:52:07.724Z,12.68
2022-11-03T21:54:43.935Z,8.60
2022-11-03T21:57:17.793Z,11.25
2022-11-03T21:59:51.678Z,9.60
2022-11-03T22:02:26.841Z,8.98
2022-11-03T22:05:01.952Z,9.05
2022-11-03T22:07:37.400Z,11.75
2022-11-03T22:10:13.574Z,9.10
2022-11-03T22:12:47.639Z,11.05
2022-11-03T22:15:38.777Z,9.25
2022-11-03T22:18:12.973Z,7.60
2022-11-03T22:21:04.931Z,10.00
2022-11-03T22:23:56.055Z,14.10
2022-11-03T22:26:48.162Z,9.32
2022-11-03T22:29:39.686Z,9.23
2022-11-03T22:32:17.056Z,12.38
2022-11-03T22:35:08.597Z,8.55
2022-11-03T22:37:42.650Z,7.38
2022-11-03T22:40:33.980Z,8.70
2022-11-03T22:43:36.229Z,10.27
2022-11-03T22:46:11.454Z,11.32
2022-11-03T22:48:46.002Z,9.60
2022-11-03T22:51:19.912Z,12.48
2022-11-03T22:54:12.051Z,7.75
2022-11-03T22:56:46.055Z,9.05
2022-11-03T22:59:21.343Z,8.43
2022-11-03T23:01:55.410Z,9.07
2022-11-03T23:04:29.655Z,5.80
2022-11-03T23:07:03.616Z,7.35
2022-11-03T23:09:37.536Z,5.75
2022-11-03T23:12:11.847Z,7.43
2022-11-03T23:15:04.680Z,7.82
2022-11-03T23:17:52.341Z,7.15
2022-11-03T23:20:51.926Z,11.27
2022-11-03T23:25:50.823Z,6.88
2022-11-03T23:28:24.663Z,6.75
2022-11-03T23:33:32.778Z,5.85
2022-11-03T23:36:08.139Z,10.50
2022-11-03T23:38:42.799Z,7.32
2022-11-03T23:41:19.480Z,9.00
2022-11-03T23:43:53.819Z,9.40
2022-11-03T23:46:46.353Z,6.97
2022-11-03T23:49:20.214Z,5.60
2022-11-03T23:54:27.758Z,9.07
2022-11-03T23:57:20.410Z,8.98
2022-11-03T23:59:54.236Z,4.28
